sensor_id;sensor_type;location;lat;lon;timestamp;P1;durP1;ratioP1;P2;durP2;ratioP2
60436;SDS011;46289;51.992;4.498;2023-07-29T00:00:50;5.78;;;1.85;;
60436;SDS011;46289;51.992;4.498;2023-07-29T00:02:57;5.45;;;2.25;;
60436;SDS011;46289;51.992;4.498;2023-07-29T00:05:03;3.35;;;1.92;;
60436;SDS011;46289;51.992;4.498;2023-07-29T00:07:06;6.18;;;2.08;;
60436;SDS011;46289;51.992;4.498;2023-07-29T00:09:11;5.63;;;2.10;;
60436;SDS011;46289;51.992;4.498;2023-07-29T00:11:19;6.72;;;1.80;;
60436;SDS011;46289;51.992;4.498;2023-07-29T00:13:25;3.90;;;1.90;;
60436;SDS011;46289;51.992;4.498;2023-07-29T00:15:31;3.10;;;1.75;;
60436;SDS011;46289;51.992;4.498;2023-07-29T00:17:36;3.47;;;1.90;;
60436;SDS011;46289;51.992;4.498;2023-07-29T00:19:41;3.85;;;2.40;;
60436;SDS011;46289;51.992;4.498;2023-07-29T00:21:47;5.22;;;2.30;;
60436;SDS011;46289;51.992;4.498;2023-07-29T00:23:52;5.47;;;2.70;;
60436;SDS011;46289;51.992;4.498;2023-07-29T00:25:59;6.18;;;2.30;;
60436;SDS011;46289;51.992;4.498;2023-07-29T00:28:09;6.40;;;2.50;;
60436;SDS011;46289;51.992;4.498;2023-07-29T00:30:16;6.78;;;2.58;;
60436;SDS011;46289;51.992;4.498;2023-07-29T00:32:21;4.72;;;2.30;;
60436;SDS011;46289;51.992;4.498;2023-07-29T00:34:26;8.25;;;2.13;;
60436;SDS011;46289;51.992;4.498;2023-07-29T00:36:32;5.07;;;2.03;;
60436;SDS011;46289;51.992;4.498;2023-07-29T00:38:38;5.07;;;2.03;;
60436;SDS011;46289;51.992;4.498;2023-07-29T00:40:44;4.07;;;2.03;;
60436;SDS011;46289;51.992;4.498;2023-07-29T00:42:49;6.13;;;2.20;;
60436;SDS011;46289;51.992;4.498;2023-07-29T00:44:55;4.13;;;1.90;;
60436;SDS011;46289;51.992;4.498;2023-07-29T00:47:00;4.93;;;2.20;;
60436;SDS011;46289;51.992;4.498;2023-07-29T00:49:12;4.32;;;2.17;;
60436;SDS011;46289;51.992;4.498;2023-07-29T00:51:19;5.82;;;2.35;;
60436;SDS011;46289;51.992;4.498;2023-07-29T00:53:24;3.53;;;1.95;;
60436;SDS011;46289;51.992;4.498;2023-07-29T00:55:29;6.25;;;2.40;;
60436;SDS011;46289;51.992;4.498;2023-07-29T00:57:35;5.45;;;2.53;;
60436;SDS011;46289;51.992;4.498;2023-07-29T00:59:41;6.90;;;2.70;;
60436;SDS011;46289;51.992;4.498;2023-07-29T01:01:49;6.75;;;2.40;;
60436;SDS011;46289;51.992;4.498;2023-07-29T01:03:55;4.45;;;2.50;;
60436;SDS011;46289;51.992;4.498;2023-07-29T01:06:04;5.05;;;2.83;;
60436;SDS011;46289;51.992;4.498;2023-07-29T01:08:20;6.93;;;2.13;;
60436;SDS011;46289;51.992;4.498;2023-07-29T01:10:34;6.88;;;1.98;;
60436;SDS011;46289;51.992;4.498;2023-07-29T01:12:53;7.78;;;2.20;;
60436;SDS011;46289;51.992;4.498;2023-07-29T01:15:04;3.50;;;2.08;;
60436;SDS011;46289;51.992;4.498;2023-07-29T01:17:25;4.65;;;2.25;;
60436;SDS011;46289;51.992;4.498;2023-07-29T01:19:42;5.35;;;2.67;;
60436;SDS011;46289;51.992;4.498;2023-07-29T01:21:59;3.83;;;2.05;;
60436;SDS011;46289;51.992;4.498;2023-07-29T01:24:10;5.63;;;1.95;;
60436;SDS011;46289;51.992;4.498;2023-07-29T01:26:15;6.22;;;2.35;;
60436;SDS011;46289;51.992;4.498;2023-07-29T01:28:18;3.92;;;2.00;;
60436;SDS011;46289;51.992;4.498;2023-07-29T01:30:30;8.70;;;2.45;;
60436;SDS011;46289;51.992;4.498;2023-07-29T01:32:43;5.15;;;2.00;;
60436;SDS011;46289;51.992;4.498;2023-07-29T01:35:05;5.28;;;2.20;;
60436;SDS011;46289;51.992;4.498;2023-07-29T01:37:22;4.30;;;2.10;;
60436;SDS011;46289;51.992;4.498;2023-07-29T01:39:34;5.72;;;2.22;;
60436;SDS011;46289;51.992;4.498;2023-07-29T01:41:41;7.68;;;2.17;;
60436;SDS011;46289;51.992;4.498;2023-07-29T01:43:51;5.28;;;2.13;;
60436;SDS011;46289;51.992;4.498;2023-07-29T01:45:58;5.53;;;2.15;;
60436;SDS011;46289;51.992;4.498;2023-07-29T01:48:04;6.07;;;2.22;;
60436;SDS011;46289;51.992;4.498;2023-07-29T01:50:11;10.65;;;3.45;;
60436;SDS011;46289;51.992;4.498;2023-07-29T01:52:16;4.28;;;2.25;;
60436;SDS011;46289;51.992;4.498;2023-07-29T01:54:21;6.38;;;2.33;;
60436;SDS011;46289;51.992;4.498;2023-07-29T01:56:29;4.50;;;2.30;;
60436;SDS011;46289;51.992;4.498;2023-07-29T01:58:35;5.25;;;2.38;;
60436;SDS011;46289;51.992;4.498;2023-07-29T02:02:43;5.35;;;2.65;;
60436;SDS011;46289;51.992;4.498;2023-07-29T02:04:48;7.50;;;2.53;;
60436;SDS011;46289;51.992;4.498;2023-07-29T02:06:54;5.53;;;2.78;;
60436;SDS011;46289;51.992;4.498;2023-07-29T02:08:59;5.40;;;2.47;;
60436;SDS011;46289;51.992;4.498;2023-07-29T02:11:06;5.20;;;2.53;;
60436;SDS011;46289;51.992;4.498;2023-07-29T02:13:14;5.30;;;2.28;;
60436;SDS011;46289;51.992;4.498;2023-07-29T02:15:19;6.00;;;2.25;;
60436;SDS011;46289;51.992;4.498;2023-07-29T02:17:25;8.00;;;2.60;;
60436;SDS011;46289;51.992;4.498;2023-07-29T02:19:30;5.90;;;2.40;;
60436;SDS011;46289;51.992;4.498;2023-07-29T02:21:35;3.45;;;2.00;;
60436;SDS011;46289;51.992;4.498;2023-07-29T02:23:40;4.50;;;1.92;;
60436;SDS011;46289;51.992;4.498;2023-07-29T02:25:45;7.35;;;2.60;;
60436;SDS011;46289;51.992;4.498;2023-07-29T02:27:51;4.93;;;2.28;;
60436;SDS011;46289;51.992;4.498;2023-07-29T02:29:58;6.40;;;2.63;;
60436;SDS011;46289;51.992;4.498;2023-07-29T02:32:04;4.90;;;2.58;;
60436;SDS011;46289;51.992;4.498;2023-07-29T02:34:06;7.15;;;2.13;;
60436;SDS011;46289;51.992;4.498;2023-07-29T02:36:12;4.50;;;2.00;;
60436;SDS011;46289;51.992;4.498;2023-07-29T02:38:18;8.98;;;2.78;;
60436;SDS011;46289;51.992;4.498;2023-07-29T02:40:23;3.97;;;1.98;;
60436;SDS011;46289;51.992;4.498;2023-07-29T02:42:30;5.15;;;2.17;;
60436;SDS011;46289;51.992;4.498;2023-07-29T02:44:36;6.97;;;2.67;;
60436;SDS011;46289;51.992;4.498;2023-07-29T02:46:44;7.72;;;2.50;;
60436;SDS011;46289;51.992;4.498;2023-07-29T02:48:50;5.65;;;2.50;;
60436;SDS011;46289;51.992;4.498;2023-07-29T02:50:55;6.22;;;2.35;;
60436;SDS011;46289;51.992;4.498;2023-07-29T02:52:58;5.22;;;2.60;;
60436;SDS011;46289;51.992;4.498;2023-07-29T02:55:04;4.35;;;2.00;;
60436;SDS011;46289;51.992;4.498;2023-07-29T02:57:13;6.75;;;2.45;;
60436;SDS011;46289;51.992;4.498;2023-07-29T02:59:19;8.20;;;2.88;;
60436;SDS011;46289;51.992;4.498;2023-07-29T03:01:25;5.80;;;2.58;;
60436;SDS011;46289;51.992;4.498;2023-07-29T03:03:33;6.57;;;2.75;;
60436;SDS011;46289;51.992;4.498;2023-07-29T03:05:38;8.57;;;3.40;;
60436;SDS011;46289;51.992;4.498;2023-07-29T03:07:46;7.28;;;2.83;;
60436;SDS011;46289;51.992;4.498;2023-07-29T03:09:51;6.78;;;2.97;;
60436;SDS011;46289;51.992;4.498;2023-07-29T03:11:56;7.88;;;3.60;;
60436;SDS011;46289;51.992;4.498;2023-07-29T03:14:01;4.57;;;2.60;;
60436;SDS011;46289;51.992;4.498;2023-07-29T03:16:07;6.88;;;2.95;;
60436;SDS011;46289;51.992;4.498;2023-07-29T03:18:15;7.05;;;2.38;;
60436;SDS011;46289;51.992;4.498;2023-07-29T03:20:23;10.15;;;2.97;;
60436;SDS011;46289;51.992;4.498;2023-07-29T03:22:31;6.80;;;2.47;;
60436;SDS011;46289;51.992;4.498;2023-07-29T03:24:36;7.20;;;2.90;;
60436;SDS011;46289;51.992;4.498;2023-07-29T03:26:41;7.65;;;2.38;;
60436;SDS011;46289;51.992;4.498;2023-07-29T03:28:49;6.63;;;2.75;;
60436;SDS011;46289;51.992;4.498;2023-07-29T03:30:58;8.20;;;2.50;;
60436;SDS011;46289;51.992;4.498;2023-07-29T03:33:04;6.95;;;2.65;;
60436;SDS011;46289;51.992;4.498;2023-07-29T03:35:10;5.43;;;2.47;;
60436;SDS011;46289;51.992;4.498;2023-07-29T03:37:18;6.68;;;2.75;;
60436;SDS011;46289;51.992;4.498;2023-07-29T03:39:23;7.25;;;2.35;;
60436;SDS011;46289;51.992;4.498;2023-07-29T03:41:29;7.32;;;3.17;;
60436;SDS011;46289;51.992;4.498;2023-07-29T03:43:35;7.28;;;2.72;;
60436;SDS011;46289;51.992;4.498;2023-07-29T03:45:40;8.77;;;3.00;;
60436;SDS011;46289;51.992;4.498;2023-07-29T03:49:48;11.77;;;3.33;;
60436;SDS011;46289;51.992;4.498;2023-07-29T03:51:50;8.95;;;3.10;;
60436;SDS011;46289;51.992;4.498;2023-07-29T03:53:59;9.93;;;3.58;;
60436;SDS011;46289;51.992;4.498;2023-07-29T03:56:05;6.43;;;3.00;;
60436;SDS011;46289;51.992;4.498;2023-07-29T03:58:11;8.18;;;3.03;;
60436;SDS011;46289;51.992;4.498;2023-07-29T04:00:17;6.13;;;2.92;;
60436;SDS011;46289;51.992;4.498;2023-07-29T04:02:20;8.63;;;3.42;;
60436;SDS011;46289;51.992;4.498;2023-07-29T04:04:26;11.05;;;3.20;;
60436;SDS011;46289;51.992;4.498;2023-07-29T04:06:31;9.15;;;3.20;;
60436;SDS011;46289;51.992;4.498;2023-07-29T04:08:37;8.27;;;3.88;;
60436;SDS011;46289;51.992;4.498;2023-07-29T04:10:46;9.23;;;3.42;;
60436;SDS011;46289;51.992;4.498;2023-07-29T04:12:52;8.23;;;3.28;;
60436;SDS011;46289;51.992;4.498;2023-07-29T04:14:57;7.40;;;3.25;;
60436;SDS011;46289;51.992;4.498;2023-07-29T04:17:05;7.97;;;3.53;;
60436;SDS011;46289;51.992;4.498;2023-07-29T04:19:11;7.47;;;3.10;;
60436;SDS011;46289;51.992;4.498;2023-07-29T04:21:15;9.70;;;3.63;;
60436;SDS011;46289;51.992;4.498;2023-07-29T04:23:21;9.55;;;3.75;;
60436;SDS011;46289;51.992;4.498;2023-07-29T04:25:26;8.90;;;3.47;;
60436;SDS011;46289;51.992;4.498;2023-07-29T04:27:35;13.45;;;3.80;;
60436;SDS011;46289;51.992;4.498;2023-07-29T04:29:40;7.03;;;3.30;;
60436;SDS011;46289;51.992;4.498;2023-07-29T04:31:45;14.60;;;4.90;;
60436;SDS011;46289;51.992;4.498;2023-07-29T04:33:50;10.80;;;3.60;;
60436;SDS011;46289;51.992;4.498;2023-07-29T04:35:55;9.52;;;4.05;;
60436;SDS011;46289;51.992;4.498;2023-07-29T04:38:01;8.68;;;4.00;;
60436;SDS011;46289;51.992;4.498;2023-07-29T04:40:06;9.75;;;4.03;;
60436;SDS011;46289;51.992;4.498;2023-07-29T04:42:13;8.32;;;4.25;;
60436;SDS011;46289;51.992;4.498;2023-07-29T04:44:21;9.95;;;5.20;;
60436;SDS011;46289;51.992;4.498;2023-07-29T04:46:26;8.80;;;4.28;;
60436;SDS011;46289;51.992;4.498;2023-07-29T04:48:31;8.95;;;3.92;;
60436;SDS011;46289;51.992;4.498;2023-07-29T04:50:37;9.93;;;3.92;;
60436;SDS011;46289;51.992;4.498;2023-07-29T04:52:43;10.25;;;4.32;;
60436;SDS011;46289;51.992;4.498;2023-07-29T04:54:49;11.55;;;4.18;;
60436;SDS011;46289;51.992;4.498;2023-07-29T04:56:54;10.70;;;4.03;;
60436;SDS011;46289;51.992;4.498;2023-07-29T04:59:00;9.40;;;4.00;;
60436;SDS011;46289;51.992;4.498;2023-07-29T05:01:11;9.50;;;3.80;;
60436;SDS011;46289;51.992;4.498;2023-07-29T05:03:35;8.38;;;3.90;;
60436;SDS011;46289;51.992;4.498;2023-07-29T05:05:41;10.48;;;4.38;;
60436;SDS011;46289;51.992;4.498;2023-07-29T05:07:47;9.70;;;3.97;;
60436;SDS011;46289;51.992;4.498;2023-07-29T05:09:52;8.75;;;3.70;;
60436;SDS011;46289;51.992;4.498;2023-07-29T05:12:00;10.50;;;4.35;;
60436;SDS011;46289;51.992;4.498;2023-07-29T05:14:05;9.90;;;3.65;;
60436;SDS011;46289;51.992;4.498;2023-07-29T05:19:01;10.40;;;3.75;;
60436;SDS011;46289;51.992;4.498;2023-07-29T05:21:17;12.00;;;4.70;;
60436;SDS011;46289;51.992;4.498;2023-07-29T05:23:22;10.60;;;4.57;;
60436;SDS011;46289;51.992;4.498;2023-07-29T05:25:29;13.98;;;4.65;;
60436;SDS011;46289;51.992;4.498;2023-07-29T05:27:36;9.63;;;4.60;;
60436;SDS011;46289;51.992;4.498;2023-07-29T05:29:42;10.88;;;4.85;;
60436;SDS011;46289;51.992;4.498;2023-07-29T05:31:50;10.30;;;4.32;;
60436;SDS011;46289;51.992;4.498;2023-07-29T05:33:56;12.55;;;5.10;;
60436;SDS011;46289;51.992;4.498;2023-07-29T05:36:01;9.00;;;4.95;;
60436;SDS011;46289;51.992;4.498;2023-07-29T05:38:04;10.13;;;4.07;;
60436;SDS011;46289;51.992;4.498;2023-07-29T05:40:12;10.15;;;4.53;;
60436;SDS011;46289;51.992;4.498;2023-07-29T05:42:17;11.07;;;4.13;;
60436;SDS011;46289;51.992;4.498;2023-07-29T05:44:25;8.07;;;3.67;;
60436;SDS011;46289;51.992;4.498;2023-07-29T05:46:32;9.23;;;3.83;;
60436;SDS011;46289;51.992;4.498;2023-07-29T05:48:48;6.60;;;3.30;;
60436;SDS011;46289;51.992;4.498;2023-07-29T05:50:58;8.35;;;4.03;;
60436;SDS011;46289;51.992;4.498;2023-07-29T05:53:06;12.15;;;4.07;;
60436;SDS011;46289;51.992;4.498;2023-07-29T05:55:14;9.55;;;4.25;;
60436;SDS011;46289;51.992;4.498;2023-07-29T05:57:23;11.63;;;4.15;;
60436;SDS011;46289;51.992;4.498;2023-07-29T06:02:36;11.57;;;3.72;;
60436;SDS011;46289;51.992;4.498;2023-07-29T06:04:45;7.78;;;3.40;;
60436;SDS011;46289;51.992;4.498;2023-07-29T06:06:48;7.40;;;4.32;;
60436;SDS011;46289;51.992;4.498;2023-07-29T06:08:56;7.22;;;3.30;;
60436;SDS011;46289;51.992;4.498;2023-07-29T06:11:01;10.10;;;4.10;;
60436;SDS011;46289;51.992;4.498;2023-07-29T06:13:08;10.60;;;3.42;;
60436;SDS011;46289;51.992;4.498;2023-07-29T06:15:17;7.60;;;3.80;;
60436;SDS011;46289;51.992;4.498;2023-07-29T06:17:26;11.05;;;3.95;;
60436;SDS011;46289;51.992;4.498;2023-07-29T06:19:34;10.65;;;3.85;;
60436;SDS011;46289;51.992;4.498;2023-07-29T06:21:48;10.52;;;4.07;;
60436;SDS011;46289;51.992;4.498;2023-07-29T06:23:55;9.63;;;3.50;;
60436;SDS011;46289;51.992;4.498;2023-07-29T06:26:05;13.30;;;4.15;;
60436;SDS011;46289;51.992;4.498;2023-07-29T06:28:12;9.32;;;3.75;;
60436;SDS011;46289;51.992;4.498;2023-07-29T06:30:20;7.53;;;3.10;;
60436;SDS011;46289;51.992;4.498;2023-07-29T06:32:29;8.23;;;3.55;;
60436;SDS011;46289;51.992;4.498;2023-07-29T06:36:45;8.57;;;3.35;;
60436;SDS011;46289;51.992;4.498;2023-07-29T06:38:53;6.85;;;3.47;;
60436;SDS011;46289;51.992;4.498;2023-07-29T06:41:05;6.43;;;3.20;;
60436;SDS011;46289;51.992;4.498;2023-07-29T06:43:17;8.98;;;2.97;;
60436;SDS011;46289;51.992;4.498;2023-07-29T06:45:31;7.38;;;2.63;;
60436;SDS011;46289;51.992;4.498;2023-07-29T06:47:45;5.70;;;2.50;;
60436;SDS011;46289;51.992;4.498;2023-07-29T06:52:31;5.35;;;2.78;;
60436;SDS011;46289;51.992;4.498;2023-07-29T06:54:38;5.78;;;2.50;;
60436;SDS011;46289;51.992;4.498;2023-07-29T06:56:54;9.18;;;2.50;;
60436;SDS011;46289;51.992;4.498;2023-07-29T06:59:12;5.63;;;2.83;;
60436;SDS011;46289;51.992;4.498;2023-07-29T07:01:20;8.38;;;3.03;;
60436;SDS011;46289;51.992;4.498;2023-07-29T07:03:25;6.18;;;2.95;;
60436;SDS011;46289;51.992;4.498;2023-07-29T07:05:37;6.82;;;3.47;;
60436;SDS011;46289;51.992;4.498;2023-07-29T07:07:51;6.15;;;3.03;;
60436;SDS011;46289;51.992;4.498;2023-07-29T07:09:59;10.13;;;3.67;;
60436;SDS011;46289;51.992;4.498;2023-07-29T07:12:08;8.88;;;2.97;;
60436;SDS011;46289;51.992;4.498;2023-07-29T07:14:13;7.85;;;2.70;;
60436;SDS011;46289;51.992;4.498;2023-07-29T07:16:19;4.55;;;2.55;;
60436;SDS011;46289;51.992;4.498;2023-07-29T07:18:26;5.43;;;2.70;;
60436;SDS011;46289;51.992;4.498;2023-07-29T07:20:37;4.43;;;2.38;;
60436;SDS011;46289;51.992;4.498;2023-07-29T07:22:43;8.88;;;2.42;;
60436;SDS011;46289;51.992;4.498;2023-07-29T07:24:51;4.57;;;2.28;;
60436;SDS011;46289;51.992;4.498;2023-07-29T07:27:02;4.32;;;2.03;;
60436;SDS011;46289;51.992;4.498;2023-07-29T07:29:11;4.38;;;2.22;;
60436;SDS011;46289;51.992;4.498;2023-07-29T07:31:18;3.97;;;2.13;;
60436;SDS011;46289;51.992;4.498;2023-07-29T07:33:23;8.85;;;3.17;;
60436;SDS011;46289;51.992;4.498;2023-07-29T07:35:28;5.00;;;1.95;;
60436;SDS011;46289;51.992;4.498;2023-07-29T07:40:14;5.88;;;2.05;;
60436;SDS011;46289;51.992;4.498;2023-07-29T07:42:20;6.35;;;2.20;;
60436;SDS011;46289;51.992;4.498;2023-07-29T07:44:25;5.60;;;1.60;;
60436;SDS011;46289;51.992;4.498;2023-07-29T07:46:30;4.15;;;2.40;;
60436;SDS011;46289;51.992;4.498;2023-07-29T07:48:37;5.18;;;1.85;;
60436;SDS011;46289;51.992;4.498;2023-07-29T07:50:43;3.75;;;1.95;;
60436;SDS011;46289;51.992;4.498;2023-07-29T07:52:48;4.10;;;2.15;;
60436;SDS011;46289;51.992;4.498;2023-07-29T07:54:54;3.30;;;2.00;;
60436;SDS011;46289;51.992;4.498;2023-07-29T07:57:02;5.07;;;2.10;;
60436;SDS011;46289;51.992;4.498;2023-07-29T07:59:08;6.95;;;2.40;;
60436;SDS011;46289;51.992;4.498;2023-07-29T08:01:18;7.13;;;2.97;;
60436;SDS011;46289;51.992;4.498;2023-07-29T08:03:23;4.43;;;1.83;;
60436;SDS011;46289;51.992;4.498;2023-07-29T08:05:31;6.57;;;2.00;;
60436;SDS011;46289;51.992;4.498;2023-07-29T08:07:36;5.07;;;1.98;;
60436;SDS011;46289;51.992;4.498;2023-07-29T08:09:42;4.15;;;1.90;;
60436;SDS011;46289;51.992;4.498;2023-07-29T08:11:47;4.55;;;1.90;;
60436;SDS011;46289;51.992;4.498;2023-07-29T08:13:55;3.88;;;2.00;;
60436;SDS011;46289;51.992;4.498;2023-07-29T08:16:00;5.70;;;1.80;;
60436;SDS011;46289;51.992;4.498;2023-07-29T08:18:06;2.67;;;1.73;;
60436;SDS011;46289;51.992;4.498;2023-07-29T08:20:12;3.97;;;1.90;;
60436;SDS011;46289;51.992;4.498;2023-07-29T08:22:17;5.03;;;2.25;;
60436;SDS011;46289;51.992;4.498;2023-07-29T08:24:23;3.78;;;2.15;;
60436;SDS011;46289;51.992;4.498;2023-07-29T08:26:31;4.28;;;1.60;;
60436;SDS011;46289;51.992;4.498;2023-07-29T08:28:37;4.60;;;1.95;;
60436;SDS011;46289;51.992;4.498;2023-07-29T08:30:47;3.20;;;1.85;;
60436;SDS011;46289;51.992;4.498;2023-07-29T08:32:50;4.30;;;2.10;;
60436;SDS011;46289;51.992;4.498;2023-07-29T08:37:29;6.57;;;2.20;;
60436;SDS011;46289;51.992;4.498;2023-07-29T08:39:38;6.25;;;2.40;;
60436;SDS011;46289;51.992;4.498;2023-07-29T08:41:48;5.45;;;2.30;;
60436;SDS011;46289;51.992;4.498;2023-07-29T08:43:59;6.05;;;2.78;;
60436;SDS011;46289;51.992;4.498;2023-07-29T08:46:15;5.72;;;2.60;;
60436;SDS011;46289;51.992;4.498;2023-07-29T08:48:23;9.30;;;2.70;;
60436;SDS011;46289;51.992;4.498;2023-07-29T08:50:36;5.50;;;2.70;;
60436;SDS011;46289;51.992;4.498;2023-07-29T08:52:46;5.85;;;2.40;;
60436;SDS011;46289;51.992;4.498;2023-07-29T08:54:52;6.75;;;2.63;;
60436;SDS011;46289;51.992;4.498;2023-07-29T08:57:02;5.90;;;2.83;;
60436;SDS011;46289;51.992;4.498;2023-07-29T08:59:10;5.55;;;2.53;;
60436;SDS011;46289;51.992;4.498;2023-07-29T09:01:19;8.60;;;2.78;;
60436;SDS011;46289;51.992;4.498;2023-07-29T09:03:25;4.72;;;2.90;;
60436;SDS011;46289;51.992;4.498;2023-07-29T09:05:33;6.03;;;3.00;;
60436;SDS011;46289;51.992;4.498;2023-07-29T09:07:44;6.10;;;3.30;;
60436;SDS011;46289;51.992;4.498;2023-07-29T09:09:55;6.75;;;3.28;;
60436;SDS011;46289;51.992;4.498;2023-07-29T09:12:00;5.63;;;3.33;;
60436;SDS011;46289;51.992;4.498;2023-07-29T09:14:08;6.22;;;3.40;;
60436;SDS011;46289;51.992;4.498;2023-07-29T09:16:20;5.68;;;3.58;;
60436;SDS011;46289;51.992;4.498;2023-07-29T09:18:27;7.75;;;4.35;;
60436;SDS011;46289;51.992;4.498;2023-07-29T09:20:35;5.53;;;3.20;;
60436;SDS011;46289;51.992;4.498;2023-07-29T09:22:44;5.80;;;3.20;;
60436;SDS011;46289;51.992;4.498;2023-07-29T09:24:49;5.10;;;3.33;;
60436;SDS011;46289;51.992;4.498;2023-07-29T09:29:36;6.80;;;3.15;;
60436;SDS011;46289;51.992;4.498;2023-07-29T09:31:47;10.35;;;3.28;;
60436;SDS011;46289;51.992;4.498;2023-07-29T09:34:02;5.50;;;2.88;;
60436;SDS011;46289;51.992;4.498;2023-07-29T09:36:30;3.63;;;2.83;;
60436;SDS011;46289;51.992;4.498;2023-07-29T09:38:39;7.07;;;2.80;;
60436;SDS011;46289;51.992;4.498;2023-07-29T09:40:44;7.25;;;3.45;;
60436;SDS011;46289;51.992;4.498;2023-07-29T09:43:08;9.20;;;4.43;;
60436;SDS011;46289;51.992;4.498;2023-07-29T09:45:19;5.03;;;3.15;;
60436;SDS011;46289;51.992;4.498;2023-07-29T09:47:27;5.97;;;2.83;;
60436;SDS011;46289;51.992;4.498;2023-07-29T09:49:39;6.70;;;3.10;;
60436;SDS011;46289;51.992;4.498;2023-07-29T09:51:45;4.85;;;2.47;;
60436;SDS011;46289;51.992;4.498;2023-07-29T09:53:51;5.20;;;2.42;;
60436;SDS011;46289;51.992;4.498;2023-07-29T09:55:57;5.55;;;2.42;;
60436;SDS011;46289;51.992;4.498;2023-07-29T09:58:03;5.28;;;2.30;;
60436;SDS011;46289;51.992;4.498;2023-07-29T10:00:22;6.90;;;2.47;;
60436;SDS011;46289;51.992;4.498;2023-07-29T10:03:00;3.90;;;2.53;;
60436;SDS011;46289;51.992;4.498;2023-07-29T10:07:16;3.65;;;1.80;;
60436;SDS011;46289;51.992;4.498;2023-07-29T10:09:26;5.40;;;2.15;;
60436;SDS011;46289;51.992;4.498;2023-07-29T10:11:38;8.45;;;3.90;;
60436;SDS011;46289;51.992;4.498;2023-07-29T10:14:11;3.95;;;2.22;;
60436;SDS011;46289;51.992;4.498;2023-07-29T10:16:17;3.95;;;2.20;;
60436;SDS011;46289;51.992;4.498;2023-07-29T10:18:28;9.25;;;2.78;;
60436;SDS011;46289;51.992;4.498;2023-07-29T10:20:39;3.70;;;2.20;;
60436;SDS011;46289;51.992;4.498;2023-07-29T10:23:03;5.68;;;2.35;;
60436;SDS011;46289;51.992;4.498;2023-07-29T10:25:21;4.60;;;2.83;;
60436;SDS011;46289;51.992;4.498;2023-07-29T10:27:41;2.00;;;1.30;;
60436;SDS011;46289;51.992;4.498;2023-07-29T10:30:09;4.13;;;1.35;;
60436;SDS011;46289;51.992;4.498;2023-07-29T10:32:22;2.72;;;1.15;;
60436;SDS011;46289;51.992;4.498;2023-07-29T10:34:45;4.10;;;1.38;;
60436;SDS011;46289;51.992;4.498;2023-07-29T10:40:00;3.30;;;1.23;;
60436;SDS011;46289;51.992;4.498;2023-07-29T10:42:05;1.30;;;1.20;;
60436;SDS011;46289;51.992;4.498;2023-07-29T10:46:59;3.85;;;1.77;;
60436;SDS011;46289;51.992;4.498;2023-07-29T10:49:07;3.33;;;1.40;;
60436;SDS011;46289;51.992;4.498;2023-07-29T10:51:36;2.08;;;1.60;;
60436;SDS011;46289;51.992;4.498;2023-07-29T10:53:51;4.60;;;2.17;;
60436;SDS011;46289;51.992;4.498;2023-07-29T10:55:57;2.88;;;1.88;;
60436;SDS011;46289;51.992;4.498;2023-07-29T10:58:07;3.88;;;2.03;;
60436;SDS011;46289;51.992;4.498;2023-07-29T11:00:15;3.67;;;2.15;;
60436;SDS011;46289;51.992;4.498;2023-07-29T11:02:21;3.92;;;2.17;;
60436;SDS011;46289;51.992;4.498;2023-07-29T11:04:45;4.55;;;2.70;;
60436;SDS011;46289;51.992;4.498;2023-07-29T11:09:39;9.20;;;4.32;;
60436;SDS011;46289;51.992;4.498;2023-07-29T11:11:43;3.03;;;2.22;;
60436;SDS011;46289;51.992;4.498;2023-07-29T11:13:48;6.13;;;2.78;;
60436;SDS011;46289;51.992;4.498;2023-07-29T11:15:53;5.40;;;2.88;;
60436;SDS011;46289;51.992;4.498;2023-07-29T11:17:57;5.18;;;3.15;;
60436;SDS011;46289;51.992;4.498;2023-07-29T11:20:06;4.55;;;2.92;;
60436;SDS011;46289;51.992;4.498;2023-07-29T11:22:09;5.13;;;3.08;;
60436;SDS011;46289;51.992;4.498;2023-07-29T11:24:19;4.75;;;2.72;;
60436;SDS011;46289;51.992;4.498;2023-07-29T11:26:24;6.22;;;3.33;;
60436;SDS011;46289;51.992;4.498;2023-07-29T11:28:29;5.55;;;2.90;;
60436;SDS011;46289;51.992;4.498;2023-07-29T11:30:36;6.15;;;2.97;;
60436;SDS011;46289;51.992;4.498;2023-07-29T11:32:46;5.90;;;3.22;;
60436;SDS011;46289;51.992;4.498;2023-07-29T11:34:52;5.47;;;3.10;;
60436;SDS011;46289;51.992;4.498;2023-07-29T11:36:57;4.13;;;2.70;;
60436;SDS011;46289;51.992;4.498;2023-07-29T11:39:08;6.72;;;3.10;;
60436;SDS011;46289;51.992;4.498;2023-07-29T11:41:18;6.05;;;2.95;;
60436;SDS011;46289;51.992;4.498;2023-07-29T11:43:25;5.05;;;3.42;;
60436;SDS011;46289;51.992;4.498;2023-07-29T11:45:31;4.13;;;3.03;;
60436;SDS011;46289;51.992;4.498;2023-07-29T11:47:52;5.57;;;3.17;;
60436;SDS011;46289;51.992;4.498;2023-07-29T11:49:58;6.85;;;3.10;;
60436;SDS011;46289;51.992;4.498;2023-07-29T11:52:06;6.22;;;3.30;;
60436;SDS011;46289;51.992;4.498;2023-07-29T11:54:15;7.13;;;3.30;;
60436;SDS011;46289;51.992;4.498;2023-07-29T11:56:28;5.20;;;3.25;;
60436;SDS011;46289;51.992;4.498;2023-07-29T11:58:41;4.65;;;3.08;;
60436;SDS011;46289;51.992;4.498;2023-07-29T12:00:47;6.88;;;3.13;;
60436;SDS011;46289;51.992;4.498;2023-07-29T12:02:59;4.47;;;2.72;;
60436;SDS011;46289;51.992;4.498;2023-07-29T12:05:09;4.72;;;2.80;;
60436;SDS011;46289;51.992;4.498;2023-07-29T12:07:17;3.70;;;2.50;;
60436;SDS011;46289;51.992;4.498;2023-07-29T12:09:23;5.22;;;2.45;;
60436;SDS011;46289;51.992;4.498;2023-07-29T12:11:37;5.40;;;2.65;;
60436;SDS011;46289;51.992;4.498;2023-07-29T12:13:43;5.50;;;2.53;;
60436;SDS011;46289;51.992;4.498;2023-07-29T12:15:49;5.65;;;2.78;;
60436;SDS011;46289;51.992;4.498;2023-07-29T12:17:56;3.63;;;2.13;;
60436;SDS011;46289;51.992;4.498;2023-07-29T12:20:04;2.88;;;2.30;;
60436;SDS011;46289;51.992;4.498;2023-07-29T12:24:22;3.63;;;1.98;;
60436;SDS011;46289;51.992;4.498;2023-07-29T12:26:28;3.55;;;2.13;;
60436;SDS011;46289;51.992;4.498;2023-07-29T12:28:36;4.30;;;2.03;;
60436;SDS011;46289;51.992;4.498;2023-07-29T12:30:42;4.68;;;2.30;;
60436;SDS011;46289;51.992;4.498;2023-07-29T12:32:47;3.90;;;2.20;;
60436;SDS011;46289;51.992;4.498;2023-07-29T12:34:53;4.70;;;2.25;;
60436;SDS011;46289;51.992;4.498;2023-07-29T12:36:58;5.55;;;2.42;;
60436;SDS011;46289;51.992;4.498;2023-07-29T12:39:15;3.65;;;1.95;;
60436;SDS011;46289;51.992;4.498;2023-07-29T12:41:18;5.25;;;2.30;;
60436;SDS011;46289;51.992;4.498;2023-07-29T12:43:23;3.35;;;2.03;;
60436;SDS011;46289;51.992;4.498;2023-07-29T12:45:39;3.78;;;2.17;;
60436;SDS011;46289;51.992;4.498;2023-07-29T12:47:45;3.33;;;1.80;;
60436;SDS011;46289;51.992;4.498;2023-07-29T12:49:52;5.88;;;1.95;;
60436;SDS011;46289;51.992;4.498;2023-07-29T12:51:58;5.13;;;2.22;;
60436;SDS011;46289;51.992;4.498;2023-07-29T12:54:04;3.38;;;2.50;;
60436;SDS011;46289;51.992;4.498;2023-07-29T12:56:10;5.28;;;2.45;;
60436;SDS011;46289;51.992;4.498;2023-07-29T12:58:15;5.82;;;2.50;;
60436;SDS011;46289;51.992;4.498;2023-07-29T13:00:20;5.00;;;2.28;;
60436;SDS011;46289;51.992;4.498;2023-07-29T13:02:31;4.88;;;2.10;;
60436;SDS011;46289;51.992;4.498;2023-07-29T13:04:36;4.05;;;1.92;;
60436;SDS011;46289;51.992;4.498;2023-07-29T13:06:42;5.20;;;2.65;;
60436;SDS011;46289;51.992;4.498;2023-07-29T13:08:47;4.57;;;2.00;;
60436;SDS011;46289;51.992;4.498;2023-07-29T13:10:49;5.05;;;2.40;;
60436;SDS011;46289;51.992;4.498;2023-07-29T13:12:55;3.95;;;1.90;;
60436;SDS011;46289;51.992;4.498;2023-07-29T13:15:01;6.78;;;2.38;;
60436;SDS011;46289;51.992;4.498;2023-07-29T13:17:07;4.20;;;1.98;;
60436;SDS011;46289;51.992;4.498;2023-07-29T13:19:15;3.55;;;1.70;;
60436;SDS011;46289;51.992;4.498;2023-07-29T13:21:21;2.72;;;1.90;;
60436;SDS011;46289;51.992;4.498;2023-07-29T13:23:23;4.63;;;2.00;;
60436;SDS011;46289;51.992;4.498;2023-07-29T13:25:32;3.65;;;2.00;;